ΕΜΥ, Εθνική Μετεωρολογική Υπηρεσία - Δελτία Καιρού, Προγνώσεις

ΑΕΡΟΝΑΥΤΙΛΙΑ

GREEK AIRPORTS CODES

TAF LGIR 251700Z 2518/2618 34015KT 9999 SCT020 BKN030 TEMPO 2518/2521 34015G25KT=

EUROPEAN AIRPORTS CODES

LFPO 251830Z 26005KT 9999 SCT038 BKN110 14/09 Q1028 NOSIG=